sensor_id;sensor_type;location;lat;lon;timestamp;temperature;humidity
24374;DHT22;12498;50.880;12.096;2023-02-03T00:00:21;3.30;99.90
24374;DHT22;12498;50.880;12.096;2023-02-03T00:02:46;3.30;99.90
24374;DHT22;12498;50.880;12.096;2023-02-03T00:05:12;3.30;99.90
24374;DHT22;12498;50.880;12.096;2023-02-03T00:07:38;3.30;99.90
24374;DHT22;12498;50.880;12.096;2023-02-03T00:10:05;3.30;99.90
24374;DHT22;12498;50.880;12.096;2023-02-03T00:12:31;3.30;99.90
24374;DHT22;12498;50.880;12.096;2023-02-03T00:14:58;3.20;99.90
24374;DHT22;12498;50.880;12.096;2023-02-03T00:17:23;3.00;99.90
24374;DHT22;12498;50.880;12.096;2023-02-03T00:19:49;3.20;99.90
24374;DHT22;12498;50.880;12.096;2023-02-03T00:22:15;3.30;99.90
24374;DHT22;12498;50.880;12.096;2023-02-03T00:24:40;3.20;99.90
24374;DHT22;12498;50.880;12.096;2023-02-03T00:27:06;3.30;99.90
24374;DHT22;12498;50.880;12.096;2023-02-03T00:29:32;3.30;99.90
24374;DHT22;12498;50.880;12.096;2023-02-03T00:31:58;3.30;99.90
24374;DHT22;12498;50.880;12.096;2023-02-03T00:34:28;3.30;99.90
24374;DHT22;12498;50.880;12.096;2023-02-03T00:36:54;3.30;99.90
24374;DHT22;12498;50.880;12.096;2023-02-03T00:39:20;3.30;99.90
24374;DHT22;12498;50.880;12.096;2023-02-03T00:41:46;3.40;99.90
24374;DHT22;12498;50.880;12.096;2023-02-03T00:44:12;3.40;99.90
24374;DHT22;12498;50.880;12.096;2023-02-03T00:46:38;3.40;99.90
24374;DHT22;12498;50.880;12.096;2023-02-03T00:49:04;3.50;99.90
24374;DHT22;12498;50.880;12.096;2023-02-03T00:51:30;3.50;99.90
24374;DHT22;12498;50.880;12.096;2023-02-03T00:53:56;3.50;99.90
24374;DHT22;12498;50.880;12.096;2023-02-03T00:56:22;3.60;99.90
24374;DHT22;12498;50.880;12.096;2023-02-03T00:58:48;3.60;99.90
24374;DHT22;12498;50.880;12.096;2023-02-03T01:01:13;3.60;99.90
24374;DHT22;12498;50.880;12.096;2023-02-03T01:03:39;3.70;99.90
24374;DHT22;12498;50.880;12.096;2023-02-03T01:06:17;3.60;99.90
24374;DHT22;12498;50.880;12.096;2023-02-03T01:08:43;3.70;99.90
24374;DHT22;12498;50.880;12.096;2023-02-03T01:11:15;3.70;99.90
24374;DHT22;12498;50.880;12.096;2023-02-03T01:13:42;3.70;99.90
24374;DHT22;12498;50.880;12.096;2023-02-03T01:16:13;3.70;99.90
24374;DHT22;12498;50.880;12.096;2023-02-03T01:18:39;3.90;99.90
24374;DHT22;12498;50.880;12.096;2023-02-03T01:21:11;3.80;99.90
24374;DHT22;12498;50.880;12.096;2023-02-03T01:23:37;3.90;99.90
24374;DHT22;12498;50.880;12.096;2023-02-03T01:26:06;4.10;99.90
24374;DHT22;12498;50.880;12.096;2023-02-03T01:28:32;3.90;99.90
24374;DHT22;12498;50.880;12.096;2023-02-03T01:31:12;4.00;99.90
24374;DHT22;12498;50.880;12.096;2023-02-03T01:33:38;4.00;99.90
24374;DHT22;12498;50.880;12.096;2023-02-03T01:36:11;4.10;99.90
24374;DHT22;12498;50.880;12.096;2023-02-03T01:38:38;4.10;99.90
24374;DHT22;12498;50.880;12.096;2023-02-03T01:41:06;4.20;99.90
24374;DHT22;12498;50.880;12.096;2023-02-03T01:43:38;4.30;99.90
24374;DHT22;12498;50.880;12.096;2023-02-03T01:49:23;4.40;99.90
24374;DHT22;12498;50.880;12.096;2023-02-03T01:51:49;4.40;99.90
24374;DHT22;12498;50.880;12.096;2023-02-03T01:54:24;4.40;99.90
24374;DHT22;12498;50.880;12.096;2023-02-03T01:56:54;4.50;99.90
24374;DHT22;12498;50.880;12.096;2023-02-03T01:59:21;4.50;99.90
24374;DHT22;12498;50.880;12.096;2023-02-03T02:01:49;4.50;99.90
24374;DHT22;12498;50.880;12.096;2023-02-03T02:04:16;4.60;99.90
24374;DHT22;12498;50.880;12.096;2023-02-03T02:06:42;4.60;99.90
24374;DHT22;12498;50.880;12.096;2023-02-03T02:09:09;4.60;99.90
24374;DHT22;12498;50.880;12.096;2023-02-03T02:11:35;4.60;99.90
24374;DHT22;12498;50.880;12.096;2023-02-03T02:14:02;4.60;99.90
24374;DHT22;12498;50.880;12.096;2023-02-03T02:30:16;4.80;99.90
24374;DHT22;12498;50.880;12.096;2023-02-03T02:41:36;5.00;99.90
24374;DHT22;12498;50.880;12.096;2023-02-03T02:46:38;4.60;99.90
24374;DHT22;12498;50.880;12.096;2023-02-03T02:49:29;5.10;99.90
24374;DHT22;12498;50.880;12.096;2023-02-03T02:51:59;5.10;99.90
24374;DHT22;12498;50.880;12.096;2023-02-03T02:54:27;5.10;99.90
24374;DHT22;12498;50.880;12.096;2023-02-03T02:56:56;5.10;99.90
24374;DHT22;12498;50.880;12.096;2023-02-03T02:59:24;5.10;99.90
24374;DHT22;12498;50.880;12.096;2023-02-03T03:01:49;5.50;99.90
24374;DHT22;12498;50.880;12.096;2023-02-03T03:04:20;5.20;99.90
24374;DHT22;12498;50.880;12.096;2023-02-03T03:07:00;5.40;99.90
24374;DHT22;12498;50.880;12.096;2023-02-03T03:09:40;5.30;99.90
24374;DHT22;12498;50.880;12.096;2023-02-03T03:14:36;5.30;99.90
24374;DHT22;12498;50.880;12.096;2023-02-03T03:17:06;5.30;99.90
24374;DHT22;12498;50.880;12.096;2023-02-03T03:19:38;5.20;99.90
24374;DHT22;12498;50.880;12.096;2023-02-03T03:22:08;5.30;99.90
24374;DHT22;12498;50.880;12.096;2023-02-03T03:24:47;5.40;99.90
24374;DHT22;12498;50.880;12.096;2023-02-03T03:27:17;5.40;99.90
24374;DHT22;12498;50.880;12.096;2023-02-03T03:29:55;5.60;99.90
24374;DHT22;12498;50.880;12.096;2023-02-03T03:32:22;5.40;99.90
24374;DHT22;12498;50.880;12.096;2023-02-03T03:34:49;5.50;99.90
24374;DHT22;12498;50.880;12.096;2023-02-03T03:37:24;5.40;99.90
24374;DHT22;12498;50.880;12.096;2023-02-03T03:40:21;5.60;99.90
24374;DHT22;12498;50.880;12.096;2023-02-03T03:43:12;5.50;99.90
24374;DHT22;12498;50.880;12.096;2023-02-03T03:45:46;5.90;99.90
24374;DHT22;12498;50.880;12.096;2023-02-03T03:48:37;5.50;99.90
24374;DHT22;12498;50.880;12.096;2023-02-03T03:51:09;5.50;99.90
24374;DHT22;12498;50.880;12.096;2023-02-03T03:53:38;5.80;99.90
24374;DHT22;12498;50.880;12.096;2023-02-03T03:56:10;5.30;99.90
24374;DHT22;12498;50.880;12.096;2023-02-03T03:58:41;5.50;99.90
24374;DHT22;12498;50.880;12.096;2023-02-03T04:01:11;5.60;99.90
24374;DHT22;12498;50.880;12.096;2023-02-03T04:03:45;5.60;99.90
24374;DHT22;12498;50.880;12.096;2023-02-03T04:06:12;5.70;99.90
24374;DHT22;12498;50.880;12.096;2023-02-03T04:08:38;5.70;99.90
24374;DHT22;12498;50.880;12.096;2023-02-03T04:11:04;5.70;99.90
24374;DHT22;12498;50.880;12.096;2023-02-03T04:13:30;5.70;99.90
24374;DHT22;12498;50.880;12.096;2023-02-03T04:15:56;5.70;99.90
24374;DHT22;12498;50.880;12.096;2023-02-03T04:20:47;5.80;99.90
24374;DHT22;12498;50.880;12.096;2023-02-03T04:23:13;5.70;99.90
24374;DHT22;12498;50.880;12.096;2023-02-03T04:25:38;5.70;99.90
24374;DHT22;12498;50.880;12.096;2023-02-03T04:28:04;5.80;99.90
24374;DHT22;12498;50.880;12.096;2023-02-03T04:30:31;5.90;99.90
24374;DHT22;12498;50.880;12.096;2023-02-03T04:32:56;5.80;99.90
24374;DHT22;12498;50.880;12.096;2023-02-03T04:35:22;6.00;99.90
24374;DHT22;12498;50.880;12.096;2023-02-03T04:37:48;5.80;99.90
24374;DHT22;12498;50.880;12.096;2023-02-03T04:40:14;5.70;99.90
24374;DHT22;12498;50.880;12.096;2023-02-03T04:42:40;6.00;99.90
24374;DHT22;12498;50.880;12.096;2023-02-03T04:45:07;6.00;99.90
24374;DHT22;12498;50.880;12.096;2023-02-03T04:47:33;5.90;99.90
24374;DHT22;12498;50.880;12.096;2023-02-03T04:49:58;5.90;99.90
24374;DHT22;12498;50.880;12.096;2023-02-03T04:52:25;5.90;99.90
24374;DHT22;12498;50.880;12.096;2023-02-03T04:54:50;5.90;99.90
24374;DHT22;12498;50.880;12.096;2023-02-03T04:57:16;5.90;99.90
24374;DHT22;12498;50.880;12.096;2023-02-03T04:59:42;5.90;99.90
24374;DHT22;12498;50.880;12.096;2023-02-03T05:02:07;6.00;99.90
24374;DHT22;12498;50.880;12.096;2023-02-03T05:04:33;5.90;99.90
24374;DHT22;12498;50.880;12.096;2023-02-03T05:06:59;5.90;99.90
24374;DHT22;12498;50.880;12.096;2023-02-03T05:09:25;6.00;99.90
24374;DHT22;12498;50.880;12.096;2023-02-03T05:11:51;6.10;99.90
24374;DHT22;12498;50.880;12.096;2023-02-03T05:14:17;6.00;99.90
24374;DHT22;12498;50.880;12.096;2023-02-03T05:16:43;6.00;99.90
24374;DHT22;12498;50.880;12.096;2023-02-03T05:19:09;6.00;99.90
24374;DHT22;12498;50.880;12.096;2023-02-03T05:21:34;6.00;99.90
24374;DHT22;12498;50.880;12.096;2023-02-03T05:24:00;6.00;99.90
24374;DHT22;12498;50.880;12.096;2023-02-03T05:26:27;6.00;99.90
24374;DHT22;12498;50.880;12.096;2023-02-03T05:28:53;6.20;99.90
24374;DHT22;12498;50.880;12.096;2023-02-03T05:31:18;6.20;99.90
24374;DHT22;12498;50.880;12.096;2023-02-03T05:33:44;6.00;99.90
24374;DHT22;12498;50.880;12.096;2023-02-03T05:36:09;6.10;99.90
24374;DHT22;12498;50.880;12.096;2023-02-03T05:38:35;6.10;99.90
24374;DHT22;12498;50.880;12.096;2023-02-03T05:41:01;6.10;99.90
24374;DHT22;12498;50.880;12.096;2023-02-03T05:43:45;6.10;99.90
24374;DHT22;12498;50.880;12.096;2023-02-03T05:46:11;6.10;99.90
24374;DHT22;12498;50.880;12.096;2023-02-03T05:48:37;6.20;99.90
24374;DHT22;12498;50.880;12.096;2023-02-03T05:51:02;6.30;99.90
24374;DHT22;12498;50.880;12.096;2023-02-03T05:53:28;6.30;99.90
24374;DHT22;12498;50.880;12.096;2023-02-03T05:55:54;6.50;99.90
24374;DHT22;12498;50.880;12.096;2023-02-03T05:58:19;6.30;99.90
24374;DHT22;12498;50.880;12.096;2023-02-03T06:00:45;6.40;99.90
24374;DHT22;12498;50.880;12.096;2023-02-03T06:03:11;6.40;99.90
24374;DHT22;12498;50.880;12.096;2023-02-03T06:05:37;6.30;99.90
24374;DHT22;12498;50.880;12.096;2023-02-03T06:08:06;6.40;99.90
24374;DHT22;12498;50.880;12.096;2023-02-03T06:10:32;6.30;99.90
24374;DHT22;12498;50.880;12.096;2023-02-03T06:12:58;6.30;99.90
24374;DHT22;12498;50.880;12.096;2023-02-03T06:15:23;6.30;99.90
24374;DHT22;12498;50.880;12.096;2023-02-03T06:17:49;6.20;99.90
24374;DHT22;12498;50.880;12.096;2023-02-03T06:20:18;6.30;99.90
24374;DHT22;12498;50.880;12.096;2023-02-03T06:22:44;6.30;99.90
24374;DHT22;12498;50.880;12.096;2023-02-03T06:25:10;6.40;99.90
24374;DHT22;12498;50.880;12.096;2023-02-03T06:27:36;6.40;99.90
24374;DHT22;12498;50.880;12.096;2023-02-03T06:30:02;6.70;99.90
24374;DHT22;12498;50.880;12.096;2023-02-03T06:32:28;6.30;99.90
24374;DHT22;12498;50.880;12.096;2023-02-03T06:34:54;6.30;99.90
24374;DHT22;12498;50.880;12.096;2023-02-03T06:37:19;6.20;99.90
24374;DHT22;12498;50.880;12.096;2023-02-03T06:39:45;6.30;99.90
24374;DHT22;12498;50.880;12.096;2023-02-03T06:42:10;6.40;99.90
24374;DHT22;12498;50.880;12.096;2023-02-03T06:44:36;7.00;99.90
24374;DHT22;12498;50.880;12.096;2023-02-03T06:47:01;6.30;99.90
24374;DHT22;12498;50.880;12.096;2023-02-03T06:49:28;7.10;99.90
24374;DHT22;12498;50.880;12.096;2023-02-03T06:51:54;6.80;99.90
24374;DHT22;12498;50.880;12.096;2023-02-03T06:54:20;7.20;99.90
24374;DHT22;12498;50.880;12.096;2023-02-03T06:56:45;7.50;99.90
24374;DHT22;12498;50.880;12.096;2023-02-03T06:59:11;6.40;99.90
24374;DHT22;12498;50.880;12.096;2023-02-03T07:01:37;7.20;99.90
24374;DHT22;12498;50.880;12.096;2023-02-03T07:04:03;6.50;99.90
24374;DHT22;12498;50.880;12.096;2023-02-03T07:06:29;6.40;99.90
24374;DHT22;12498;50.880;12.096;2023-02-03T07:08:59;6.40;99.90
24374;DHT22;12498;50.880;12.096;2023-02-03T07:11:25;6.60;99.90
24374;DHT22;12498;50.880;12.096;2023-02-03T07:13:51;6.60;99.90
24374;DHT22;12498;50.880;12.096;2023-02-03T07:16:17;6.50;99.90
24374;DHT22;12498;50.880;12.096;2023-02-03T07:18:43;6.70;99.90
24374;DHT22;12498;50.880;12.096;2023-02-03T07:21:09;6.50;99.90
24374;DHT22;12498;50.880;12.096;2023-02-03T07:23:34;6.60;99.90
24374;DHT22;12498;50.880;12.096;2023-02-03T07:26:01;6.50;99.90
24374;DHT22;12498;50.880;12.096;2023-02-03T07:28:32;6.60;99.90
24374;DHT22;12498;50.880;12.096;2023-02-03T07:30:58;6.50;99.90
24374;DHT22;12498;50.880;12.096;2023-02-03T07:33:25;6.30;99.90
24374;DHT22;12498;50.880;12.096;2023-02-03T07:35:52;6.90;99.90
24374;DHT22;12498;50.880;12.096;2023-02-03T07:38:18;6.60;99.90
24374;DHT22;12498;50.880;12.096;2023-02-03T07:40:44;6.60;99.90
24374;DHT22;12498;50.880;12.096;2023-02-03T07:43:10;7.00;99.90
24374;DHT22;12498;50.880;12.096;2023-02-03T07:45:36;6.70;99.90
24374;DHT22;12498;50.880;12.096;2023-02-03T07:48:01;6.70;99.90
24374;DHT22;12498;50.880;12.096;2023-02-03T07:52:53;6.70;99.90
24374;DHT22;12498;50.880;12.096;2023-02-03T07:55:20;6.80;99.90
24374;DHT22;12498;50.880;12.096;2023-02-03T07:57:46;6.80;99.90
24374;DHT22;12498;50.880;12.096;2023-02-03T08:00:14;6.80;99.90
24374;DHT22;12498;50.880;12.096;2023-02-03T08:02:43;6.70;99.90
24374;DHT22;12498;50.880;12.096;2023-02-03T08:05:09;6.80;99.90
24374;DHT22;12498;50.880;12.096;2023-02-03T08:07:35;6.90;99.90
24374;DHT22;12498;50.880;12.096;2023-02-03T08:10:01;7.10;99.90
24374;DHT22;12498;50.880;12.096;2023-02-03T08:12:27;6.90;99.90
24374;DHT22;12498;50.880;12.096;2023-02-03T08:14:53;6.50;99.90
24374;DHT22;12498;50.880;12.096;2023-02-03T08:19:44;6.90;99.90
24374;DHT22;12498;50.880;12.096;2023-02-03T08:22:10;7.00;99.90
24374;DHT22;12498;50.880;12.096;2023-02-03T08:24:45;7.10;99.90
24374;DHT22;12498;50.880;12.096;2023-02-03T08:27:15;7.10;99.90
24374;DHT22;12498;50.880;12.096;2023-02-03T08:29:41;6.90;99.90
24374;DHT22;12498;50.880;12.096;2023-02-03T08:32:12;7.20;99.90
24374;DHT22;12498;50.880;12.096;2023-02-03T08:34:38;7.30;99.90
24374;DHT22;12498;50.880;12.096;2023-02-03T08:37:04;7.30;99.90
24374;DHT22;12498;50.880;12.096;2023-02-03T08:39:30;7.20;99.90
24374;DHT22;12498;50.880;12.096;2023-02-03T08:41:56;7.30;99.90
24374;DHT22;12498;50.880;12.096;2023-02-03T08:44:22;7.40;99.90
24374;DHT22;12498;50.880;12.096;2023-02-03T08:46:51;7.40;99.90
24374;DHT22;12498;50.880;12.096;2023-02-03T08:49:18;7.40;99.90
24374;DHT22;12498;50.880;12.096;2023-02-03T08:51:45;7.40;99.90
24374;DHT22;12498;50.880;12.096;2023-02-03T08:54:11;7.50;99.90
24374;DHT22;12498;50.880;12.096;2023-02-03T08:56:37;7.50;99.90
24374;DHT22;12498;50.880;12.096;2023-02-03T08:59:03;7.90;99.90
24374;DHT22;12498;50.880;12.096;2023-02-03T09:01:29;7.40;99.90
24374;DHT22;12498;50.880;12.096;2023-02-03T09:03:54;7.40;99.90
24374;DHT22;12498;50.880;12.096;2023-02-03T09:06:20;7.50;99.90
24374;DHT22;12498;50.880;12.096;2023-02-03T09:08:46;7.60;99.90
24374;DHT22;12498;50.880;12.096;2023-02-03T09:11:14;7.60;99.90
24374;DHT22;12498;50.880;12.096;2023-02-03T09:13:40;7.80;99.90
24374;DHT22;12498;50.880;12.096;2023-02-03T09:16:14;7.70;99.90
24374;DHT22;12498;50.880;12.096;2023-02-03T09:18:44;7.70;99.90
24374;DHT22;12498;50.880;12.096;2023-02-03T09:21:11;7.70;99.90
24374;DHT22;12498;50.880;12.096;2023-02-03T09:23:38;7.70;99.90
24374;DHT22;12498;50.880;12.096;2023-02-03T09:26:11;7.70;99.90
24374;DHT22;12498;50.880;12.096;2023-02-03T09:28:37;7.70;99.90
24374;DHT22;12498;50.880;12.096;2023-02-03T09:31:06;7.80;99.90
24374;DHT22;12498;50.880;12.096;2023-02-03T09:33:32;7.50;99.90
24374;DHT22;12498;50.880;12.096;2023-02-03T09:35:58;7.80;99.90
24374;DHT22;12498;50.880;12.096;2023-02-03T09:38:25;7.80;99.90
24374;DHT22;12498;50.880;12.096;2023-02-03T09:40:57;7.80;99.90
24374;DHT22;12498;50.880;12.096;2023-02-03T09:45:50;8.00;99.90
24374;DHT22;12498;50.880;12.096;2023-02-03T09:48:21;7.80;99.90
24374;DHT22;12498;50.880;12.096;2023-02-03T09:50:49;7.80;99.90
24374;DHT22;12498;50.880;12.096;2023-02-03T09:53:29;7.90;99.90
24374;DHT22;12498;50.880;12.096;2023-02-03T09:55:57;7.80;99.90
24374;DHT22;12498;50.880;12.096;2023-02-03T09:58:25;7.80;99.90
24374;DHT22;12498;50.880;12.096;2023-02-03T10:00:58;7.80;99.90
24374;DHT22;12498;50.880;12.096;2023-02-03T10:03:37;7.90;99.90
24374;DHT22;12498;50.880;12.096;2023-02-03T10:06:30;7.80;99.90
24374;DHT22;12498;50.880;12.096;2023-02-03T10:11:31;7.90;99.90
24374;DHT22;12498;50.880;12.096;2023-02-03T10:22:03;8.10;99.90
24374;DHT22;12498;50.880;12.096;2023-02-03T10:24:44;7.90;99.90
24374;DHT22;12498;50.880;12.096;2023-02-03T10:27:19;8.00;99.90
24374;DHT22;12498;50.880;12.096;2023-02-03T10:30:03;8.00;99.90
24374;DHT22;12498;50.880;12.096;2023-02-03T10:32:29;8.10;99.90
24374;DHT22;12498;50.880;12.096;2023-02-03T10:34:55;8.10;99.90
24374;DHT22;12498;50.880;12.096;2023-02-03T10:37:32;8.00;99.90
24374;DHT22;12498;50.880;12.096;2023-02-03T10:40:00;8.10;99.90
24374;DHT22;12498;50.880;12.096;2023-02-03T10:42:28;8.20;99.90
24374;DHT22;12498;50.880;12.096;2023-02-03T10:45:14;8.20;99.90
24374;DHT22;12498;50.880;12.096;2023-02-03T10:47:46;8.30;99.90
24374;DHT22;12498;50.880;12.096;2023-02-03T10:50:18;8.30;99.90
24374;DHT22;12498;50.880;12.096;2023-02-03T10:52:45;8.20;99.90
24374;DHT22;12498;50.880;12.096;2023-02-03T10:57:52;8.00;99.90
24374;DHT22;12498;50.880;12.096;2023-02-03T11:00:26;8.10;99.90
24374;DHT22;12498;50.880;12.096;2023-02-03T11:03:02;8.00;99.90
24374;DHT22;12498;50.880;12.096;2023-02-03T11:05:29;8.00;99.90
24374;DHT22;12498;50.880;12.096;2023-02-03T11:07:55;7.70;99.90
24374;DHT22;12498;50.880;12.096;2023-02-03T11:10:34;7.90;99.90
24374;DHT22;12498;50.880;12.096;2023-02-03T11:13:10;8.00;99.90
24374;DHT22;12498;50.880;12.096;2023-02-03T11:15:36;7.90;99.90
24374;DHT22;12498;50.880;12.096;2023-02-03T11:18:02;7.90;99.90
24374;DHT22;12498;50.880;12.096;2023-02-03T11:20:28;7.90;99.90
24374;DHT22;12498;50.880;12.096;2023-02-03T11:22:54;8.00;99.90
24374;DHT22;12498;50.880;12.096;2023-02-03T11:25:27;8.10;99.90
24374;DHT22;12498;50.880;12.096;2023-02-03T11:28:03;8.00;99.90
24374;DHT22;12498;50.880;12.096;2023-02-03T11:30:29;8.10;99.90
24374;DHT22;12498;50.880;12.096;2023-02-03T11:32:55;8.10;99.90
24374;DHT22;12498;50.880;12.096;2023-02-03T11:35:27;8.10;99.90
24374;DHT22;12498;50.880;12.096;2023-02-03T11:38:00;8.40;99.90
24374;DHT22;12498;50.880;12.096;2023-02-03T11:40:31;8.30;99.90
24374;DHT22;12498;50.880;12.096;2023-02-03T11:43:02;8.30;99.90
24374;DHT22;12498;50.880;12.096;2023-02-03T11:48:25;8.20;99.90
24374;DHT22;12498;50.880;12.096;2023-02-03T12:24:02;7.80;99.90
24374;DHT22;12498;50.880;12.096;2023-02-03T12:29:39;7.60;99.90
24374;DHT22;12498;50.880;12.096;2023-02-03T12:37:57;7.70;99.90
24374;DHT22;12498;50.880;12.096;2023-02-03T12:43:33;8.10;99.90
24374;DHT22;12498;50.880;12.096;2023-02-03T12:46:11;7.80;99.90
24374;DHT22;12498;50.880;12.096;2023-02-03T12:49:00;7.40;99.90
24374;DHT22;12498;50.880;12.096;2023-02-03T12:51:40;7.70;99.90
24374;DHT22;12498;50.880;12.096;2023-02-03T12:59:42;7.80;99.90
24374;DHT22;12498;50.880;12.096;2023-02-03T13:04:49;8.30;99.90
24374;DHT22;12498;50.880;12.096;2023-02-03T13:11:02;7.90;99.90
24374;DHT22;12498;50.880;12.096;2023-02-03T13:13:03;7.90;99.90
24374;DHT22;12498;50.880;12.096;2023-02-03T13:15:36;8.00;99.90
24374;DHT22;12498;50.880;12.096;2023-02-03T13:20:53;8.00;99.90
24374;DHT22;12498;50.880;12.096;2023-02-03T13:23:19;8.00;99.90
24374;DHT22;12498;50.880;12.096;2023-02-03T13:27:00;8.00;99.90
24374;DHT22;12498;50.880;12.096;2023-02-03T13:40:24;7.90;99.90
24374;DHT22;12498;50.880;12.096;2023-02-03T13:43:02;7.90;99.90
24374;DHT22;12498;50.880;12.096;2023-02-03T13:45:46;7.80;99.90
24374;DHT22;12498;50.880;12.096;2023-02-03T13:48:30;7.80;99.90
24374;DHT22;12498;50.880;12.096;2023-02-03T13:51:19;7.80;99.90
24374;DHT22;12498;50.880;12.096;2023-02-03T13:53:46;7.80;99.90
24374;DHT22;12498;50.880;12.096;2023-02-03T13:56:22;7.60;99.90
24374;DHT22;12498;50.880;12.096;2023-02-03T13:59:04;7.80;99.90
24374;DHT22;12498;50.880;12.096;2023-02-03T14:01:34;7.80;99.90
24374;DHT22;12498;50.880;12.096;2023-02-03T14:04:02;7.60;99.90
24374;DHT22;12498;50.880;12.096;2023-02-03T14:20:02;7.90;99.90
24374;DHT22;12498;50.880;12.096;2023-02-03T14:22:30;7.80;99.90
24374;DHT22;12498;50.880;12.096;2023-02-03T14:24:57;7.80;99.90
24374;DHT22;12498;50.880;12.096;2023-02-03T14:27:29;7.80;99.90
24374;DHT22;12498;50.880;12.096;2023-02-03T14:30:22;7.80;99.90
24374;DHT22;12498;50.880;12.096;2023-02-03T14:32:50;7.80;99.90
24374;DHT22;12498;50.880;12.096;2023-02-03T14:35:22;7.80;99.90
24374;DHT22;12498;50.880;12.096;2023-02-03T14:37:52;7.80;99.90
24374;DHT22;12498;50.880;12.096;2023-02-03T14:40:40;7.70;99.90
24374;DHT22;12498;50.880;12.096;2023-02-03T15:10:58;7.90;93.00
24374;DHT22;12498;50.880;12.096;2023-02-03T15:13:30;7.60;89.70
24374;DHT22;12498;50.880;12.096;2023-02-03T15:16:01;7.60;85.40
24374;DHT22;12498;50.880;12.096;2023-02-03T15:18:30;7.60;65.00
24374;DHT22;12498;50.880;12.096;2023-02-03T15:20:57;7.70;49.00
24374;DHT22;12498;50.880;12.096;2023-02-03T15:23:25;7.70;24.30
24374;DHT22;12498;50.880;12.096;2023-02-03T15:25:59;7.70;15.40
24374;DHT22;12498;50.880;12.096;2023-02-03T15:28:26;7.80;23.90
24374;DHT22;12498;50.880;12.096;2023-02-03T15:30:59;7.70;30.00
24374;DHT22;12498;50.880;12.096;2023-02-03T15:33:28;7.60;28.60
24374;DHT22;12498;50.880;12.096;2023-02-03T15:35:59;7.60;31.20
24374;DHT22;12498;50.880;12.096;2023-02-03T15:38:32;7.60;30.50
24374;DHT22;12498;50.880;12.096;2023-02-03T15:41:01;7.50;32.30
24374;DHT22;12498;50.880;12.096;2023-02-03T15:43:36;7.30;40.50
24374;DHT22;12498;50.880;12.096;2023-02-03T15:46:06;7.50;30.20
24374;DHT22;12498;50.880;12.096;2023-02-03T15:48:51;7.50;58.70
24374;DHT22;12498;50.880;12.096;2023-02-03T15:51:23;7.50;57.60
24374;DHT22;12498;50.880;12.096;2023-02-03T15:59:02;7.50;62.40
24374;DHT22;12498;50.880;12.096;2023-02-03T16:01:28;7.50;73.50
24374;DHT22;12498;50.880;12.096;2023-02-03T16:03:55;7.30;60.90
24374;DHT22;12498;50.880;12.096;2023-02-03T16:08:55;7.40;56.50
24374;DHT22;12498;50.880;12.096;2023-02-03T16:13:46;7.70;63.00
24374;DHT22;12498;50.880;12.096;2023-02-03T16:16:38;7.30;68.10
24374;DHT22;12498;50.880;12.096;2023-02-03T16:19:20;7.00;67.50
24374;DHT22;12498;50.880;12.096;2023-02-03T16:24:46;7.40;54.20
24374;DHT22;12498;50.880;12.096;2023-02-03T16:30:33;7.30;62.10
24374;DHT22;12498;50.880;12.096;2023-02-03T16:33:12;7.60;82.20
24374;DHT22;12498;50.880;12.096;2023-02-03T16:36:00;7.20;69.30
24374;DHT22;12498;50.880;12.096;2023-02-03T16:38:46;7.10;72.50
24374;DHT22;12498;50.880;12.096;2023-02-03T16:41:31;7.20;65.70
24374;DHT22;12498;50.880;12.096;2023-02-03T16:44:15;7.30;61.50
24374;DHT22;12498;50.880;12.096;2023-02-03T16:47:00;7.20;40.70
24374;DHT22;12498;50.880;12.096;2023-02-03T16:49:44;6.90;57.00
24374;DHT22;12498;50.880;12.096;2023-02-03T16:52:29;7.20;42.00
24374;DHT22;12498;50.880;12.096;2023-02-03T16:54:54;7.20;39.10
24374;DHT22;12498;50.880;12.096;2023-02-03T16:59:46;7.30;38.30
24374;DHT22;12498;50.880;12.096;2023-02-03T17:02:12;7.30;35.40
24374;DHT22;12498;50.880;12.096;2023-02-03T17:04:37;7.30;35.70
24374;DHT22;12498;50.880;12.096;2023-02-03T17:07:03;7.30;29.50
24374;DHT22;12498;50.880;12.096;2023-02-03T17:09:30;7.40;35.00
24374;DHT22;12498;50.880;12.096;2023-02-03T17:12:00;7.30;31.60
24374;DHT22;12498;50.880;12.096;2023-02-03T17:14:27;7.30;33.40
24374;DHT22;12498;50.880;12.096;2023-02-03T17:16:52;7.30;22.20
24374;DHT22;12498;50.880;12.096;2023-02-03T17:19:18;7.40;32.20
24374;DHT22;12498;50.880;12.096;2023-02-03T17:21:44;7.30;27.20
24374;DHT22;12498;50.880;12.096;2023-02-03T17:24:12;7.40;30.60
24374;DHT22;12498;50.880;12.096;2023-02-03T17:26:38;7.30;4.00
24374;DHT22;12498;50.880;12.096;2023-02-03T17:29:03;7.30;1.00
24374;DHT22;12498;50.880;12.096;2023-02-03T17:31:29;7.30;1.00
24374;DHT22;12498;50.880;12.096;2023-02-03T17:33:55;7.20;1.00
24374;DHT22;12498;50.880;12.096;2023-02-03T17:36:22;7.20;1.00
24374;DHT22;12498;50.880;12.096;2023-02-03T17:38:53;7.10;45.30
24374;DHT22;12498;50.880;12.096;2023-02-03T17:41:24;6.60;59.70
24374;DHT22;12498;50.880;12.096;2023-02-03T17:43:50;6.80;82.70
24374;DHT22;12498;50.880;12.096;2023-02-03T17:46:19;6.30;82.70
24374;DHT22;12498;50.880;12.096;2023-02-03T17:48:45;6.40;77.00
24374;DHT22;12498;50.880;12.096;2023-02-03T17:51:19;6.50;52.90
24374;DHT22;12498;50.880;12.096;2023-02-03T17:53:46;6.60;60.00
24374;DHT22;12498;50.880;12.096;2023-02-03T17:56:20;6.50;60.50
24374;DHT22;12498;50.880;12.096;2023-02-03T17:58:47;6.50;61.90
24374;DHT22;12498;50.880;12.096;2023-02-03T18:01:18;6.50;54.30
24374;DHT22;12498;50.880;12.096;2023-02-03T18:03:48;6.50;61.00
24374;DHT22;12498;50.880;12.096;2023-02-03T18:06:16;6.60;62.10
24374;DHT22;12498;50.880;12.096;2023-02-03T18:08:42;6.90;56.00
24374;DHT22;12498;50.880;12.096;2023-02-03T18:11:09;6.40;68.90
24374;DHT22;12498;50.880;12.096;2023-02-03T18:13:37;6.50;62.90
24374;DHT22;12498;50.880;12.096;2023-02-03T18:16:04;6.70;73.30
24374;DHT22;12498;50.880;12.096;2023-02-03T18:18:30;6.90;72.00
24374;DHT22;12498;50.880;12.096;2023-02-03T18:20:56;6.70;67.20
24374;DHT22;12498;50.880;12.096;2023-02-03T18:23:21;6.50;68.70
24374;DHT22;12498;50.880;12.096;2023-02-03T18:25:54;6.90;77.70
24374;DHT22;12498;50.880;12.096;2023-02-03T18:28:20;6.70;72.60
24374;DHT22;12498;50.880;12.096;2023-02-03T18:30:47;6.80;84.80
24374;DHT22;12498;50.880;12.096;2023-02-03T18:33:14;6.70;80.20
24374;DHT22;12498;50.880;12.096;2023-02-03T18:35:39;6.80;69.40
24374;DHT22;12498;50.880;12.096;2023-02-03T18:38:06;6.70;73.80
24374;DHT22;12498;50.880;12.096;2023-02-03T18:40:32;6.70;70.40
24374;DHT22;12498;50.880;12.096;2023-02-03T18:42:59;7.00;78.40
24374;DHT22;12498;50.880;12.096;2023-02-03T18:45:26;6.40;80.40
24374;DHT22;12498;50.880;12.096;2023-02-03T18:47:52;7.40;75.40
24374;DHT22;12498;50.880;12.096;2023-02-03T18:50:18;6.70;69.90